ESOW/VST METAR and TAF weather

Enter ICAO airport designator
Station Type Date Time Source
ESOW METAR 2019/08/22 03:20 UTC NOAA

ESOW 220320Z AUTO 24006KT 200V280 9999 NCD 12/10 Q1023


Station Type Date Time Source
ESOW Decoded METAR 2019/08/22 03:20 UTC NOAA

Station name not available
Aug 21, 2019 - 11:20 PM EDT / 2019.08.22 0320 UTC
Wind: from the WSW (240 degrees) at 7 MPH (6 KT) (direction variable):0
Visibility: greater than 7 mile(s):0
Temperature: 53 F (12 C)
Dew Point: 50 F (10 C)
Relative Humidity: 87%
Pressure (altimeter): 30.21 in. Hg (1023 hPa)
ob: ESOW 220320Z AUTO 24006KT 200V280 9999 NCD 12/10 Q1023
cycle: 3

Station Type Date Time Source
ESOW TAF 2018/11/18 12:33 UTC NOAA

TAF ESOW 181130Z 1812/1914 02015KT 9999 BKN020
TEMPO 1812/1814 02015G25KT

Example: see airport list